aviador You're here:

KORH Decoded Metar

WORCESTER in MA, USA
Report Time2017-09-21 18:54:00
UTC Time2017-09-21 19:35:14
Flight Rules vfr VFR
Wind030° at 11 Gusting to 17 kt
W.Decomp.*RWY 11: 4.6 kt HW 10 kt LCW
RWY 33: 2.8 kt HW 10.6 kt RCW
W.Rank030° ranks 15
Current wind is above 030° avg. (7.2)
Visibility9999 m
Phenomena:N/A
Clouds:N/A
Expected CloudBase > 3,200 ft AGL from Temp-Dew spread
CeilingNone
Temp20°C (ISA +7)
Dew Point12°C (60% RH)
AAT16.7°C
QNH1017 hPa
Density Alt1,870 ft
Elevation997 ft
Report Wrong Elevation
Raw Report
KORH 211854Z 03011G17KT 10SM CLR 20/12 A3004 RMK AO2 SLP170
T02000117=

Extra information for KORH:More info

Metar Taf Metar & Taf Last 4 Metars F.Rules Stats Wind Profile Meteogram Temp Stats Airport Information Weather charts Add Link Nearby VenuesMetar ALERT Operation Metar Decoded Social comments

AIRNAV info for KORH